Time;durP1;ratioP1;P1;durP2;ratioP2;P2;SDS_P1;SDS_P2;PMS_P1;PMS_P2;Temp;Humidity;BMP_temperature;BMP_pressure;BME280_temperature;BME280_humidity;BME280_pressure;Samples;Min_cycle;Max_cycle;Signal;HPM_P1;HPM_P2
2022/08/14 00:01:30;;;;;;;3.42;2.00;;;24.10;53.40;;;;;;4408484;32;20023;-68
2022/08/14 00:03:57;;;;;;;3.25;2.10;;;24.00;53.50;;;;;;4410142;32;19957;-68
2022/08/14 00:06:24;;;;;;;2.35;1.80;;;24.10;53.20;;;;;;4402831;32;20000;-68
2022/08/14 00:08:50;;;;;;;2.47;1.92;;;24.00;53.40;;;;;;4405327;32;20106;-68
2022/08/14 00:11:17;;;;;;;3.15;1.95;;;24.10;53.30;;;;;;4401620;32;20140;-68
2022/08/14 00:13:44;;;;;;;2.58;2.05;;;24.00;53.20;;;;;;4403488;32;20041;-69
2022/08/14 00:16:13;;;;;;;2.47;1.90;;;23.90;53.80;;;;;;4404591;32;19974;-69
2022/08/14 00:18:40;;;;;;;5.40;1.80;;;23.80;53.60;;;;;;4414284;32;19975;-69
2022/08/14 00:21:08;;;;;;;2.58;2.10;;;23.80;53.60;;;;;;4396800;32;19990;-69
2022/08/14 00:23:34;;;;;;;4.93;2.17;;;23.50;54.90;;;;;;4402436;32;19994;-69
2022/08/14 00:26:01;;;;;;;6.68;2.35;;;22.40;59.10;;;;;;4410886;32;20022;-69
2022/08/14 00:28:28;;;;;;;4.82;2.12;;;21.90;59.60;;;;;;4408899;32;20107;-69
2022/08/14 00:30:56;;;;;;;2.87;2.00;;;21.90;61.10;;;;;;4413541;32;19989;-69
2022/08/14 00:33:26;;;;;;;4.87;2.30;;;21.60;61.30;;;;;;4413945;32;19960;-69
2022/08/14 00:35:53;;;;;;;3.58;1.98;;;21.50;63.20;;;;;;4404866;32;19991;-69
2022/08/14 00:38:21;;;;;;;4.05;2.20;;;21.10;64.30;;;;;;4405588;32;20156;-69
2022/08/14 00:40:48;;;;;;;4.00;2.42;;;21.10;61.60;;;;;;4407278;32;19965;-68
2022/08/14 00:43:15;;;;;;;4.62;2.20;;;22.20;57.80;;;;;;4416424;32;20073;-69
2022/08/14 00:45:42;;;;;;;2.25;1.95;;;22.50;56.40;;;;;;4414764;32;19955;-68
2022/08/14 00:48:10;;;;;;;3.12;1.75;;;22.80;55.90;;;;;;4394796;32;20071;-68
2022/08/14 00:50:38;;;;;;;4.05;2.20;;;22.90;55.30;;;;;;4407173;32;19972;-67
2022/08/14 00:53:06;;;;;;;6.30;2.17;;;22.90;56.70;;;;;;4410714;32;20165;-68
2022/08/14 00:55:35;;;;;;;4.25;2.10;;;22.20;60.00;;;;;;4408275;32;19958;-68
2022/08/14 01:00:49;;;;;;;3.45;2.10;;;21.20;63.70;;;;;;4416994;32;19968;-68
2022/08/14 01:03:17;;;;;;;2.33;2.05;;;20.90;64.00;;;;;;4414786;32;20107;-68
2022/08/14 01:05:48;;;;;;;3.87;1.98;;;20.70;64.70;;;;;;4406691;32;20027;-68
2022/08/14 01:08:18;;;;;;;3.92;2.05;;;20.50;65.50;;;;;;4407850;32;19984;-68
2022/08/14 01:10:50;;;;;;;4.18;2.37;;;20.20;66.70;;;;;;4403288;32;19990;-68
2022/08/14 01:13:20;;;;;;;3.45;2.47;;;20.50;63.70;;;;;;4409132;32;19994;-69
2022/08/14 01:15:50;;;;;;;4.32;2.60;;;20.50;63.40;;;;;;4402784;32;19991;-68
2022/08/14 01:21:05;;;;;;;4.37;2.45;;;21.60;59.80;;;;;;4407188;32;19982;-68
2022/08/14 01:23:35;;;;;;;3.25;2.20;;;21.70;58.50;;;;;;4403046;32;20042;-68
2022/08/14 01:26:03;;;;;;;3.10;2.03;;;21.40;60.80;;;;;;4414216;32;19989;-69
2022/08/14 01:28:32;;;;;;;3.33;2.33;;;21.00;62.20;;;;;;4409512;32;19972;-69
2022/08/14 01:30:59;;;;;;;3.47;2.10;;;22.30;57.70;;;;;;4404374;32;20095;-69
2022/08/14 01:33:28;;;;;;;2.78;2.10;;;22.80;56.20;;;;;;4406751;32;19994;-69
2022/08/14 01:35:56;;;;;;;2.20;2.00;;;22.80;56.00;;;;;;4405009;32;19988;-69
2022/08/14 01:38:25;;;;;;;2.75;1.98;;;22.80;56.90;;;;;;4405081;32;19970;-69
2022/08/14 01:40:53;;;;;;;2.72;2.10;;;22.70;56.30;;;;;;4406493;32;19967;-68
2022/08/14 01:43:20;;;;;;;2.53;2.10;;;22.60;56.60;;;;;;4408983;32;20003;-69
2022/08/14 01:45:50;;;;;;;3.17;2.00;;;23.00;56.40;;;;;;4403592;32;20005;-68
2022/08/14 01:48:18;;;;;;;3.22;2.00;;;23.20;55.40;;;;;;4403560;32;19970;-69
2022/08/14 01:50:45;;;;;;;2.33;2.08;;;23.00;55.60;;;;;;4412813;32;19991;-69
2022/08/14 01:53:12;;;;;;;3.67;2.20;;;22.70;56.90;;;;;;4402811;32;20136;-69
2022/08/14 01:55:39;;;;;;;2.85;2.03;;;22.20;58.50;;;;;;4402601;32;19963;-69
2022/08/14 01:58:11;;;;;;;4.47;2.10;;;21.90;58.20;;;;;;4410219;32;19991;-69
2022/08/14 02:00:38;;;;;;;2.85;1.98;;;21.90;59.60;;;;;;4408411;32;19959;-70
2022/08/14 02:03:05;;;;;;;3.97;2.30;;;21.60;61.60;;;;;;4408305;32;19963;-69
2022/08/14 02:05:32;;;;;;;2.45;2.25;;;21.10;63.90;;;;;;4411200;32;19966;-69
2022/08/14 02:07:59;;;;;;;4.15;2.53;;;20.80;65.30;;;;;;4404668;32;19989;-69
2022/08/14 02:10:27;;;;;;;3.00;2.12;;;20.40;67.90;;;;;;4407286;32;19961;-69
2022/08/14 02:12:54;;;;;;;3.15;2.35;;;20.00;67.20;;;;;;4403086;32;20109;-69
2022/08/14 02:15:22;;;;;;;5.22;2.50;;;19.80;68.80;;;;;;4411191;32;19958;-69
2022/08/14 02:17:50;;;;;;;3.40;2.08;;;19.70;69.80;;;;;;4409175;32;19991;-69
2022/08/14 02:20:19;;;;;;;2.80;2.17;;;19.50;67.60;;;;;;4396882;32;19967;-69
2022/08/14 02:22:46;;;;;;;2.97;2.22;;;19.40;68.60;;;;;;4405821;32;19961;-69
2022/08/14 02:25:12;;;;;;;2.92;2.28;;;19.30;69.10;;;;;;4403335;32;19991;-69
2022/08/14 02:27:40;;;;;;;3.95;1.87;;;19.20;69.20;;;;;;4410667;32;20075;-69
2022/08/14 02:30:08;;;;;;;3.45;2.42;;;19.10;69.50;;;;;;4412207;32;19979;-69
2022/08/14 02:32:37;;;;;;;3.08;2.05;;;19.30;68.30;;;;;;4402058;32;20138;-68
2022/08/14 02:35:09;;;;;;;3.58;2.33;;;19.20;69.50;;;;;;4407436;32;20095;-68
2022/08/14 02:37:35;;;;;;;;;;;19.20;69.00;;;;;;4411332;32;19975;-68
2022/08/14 02:40:02;;;;;;;2.87;2.20;;;19.10;68.40;;;;;;4400391;32;19943;-68
2022/08/14 02:42:29;;;;;;;7.85;2.35;;;19.10;70.20;;;;;;4411829;32;19993;-68
2022/08/14 02:44:55;;;;;;;2.92;2.45;;;18.90;70.10;;;;;;4395777;32;19976;-68
2022/08/14 02:47:22;;;;;;;3.50;2.60;;;18.80;71.30;;;;;;4403676;32;20105;-68
2022/08/14 02:49:50;;;;;;;3.50;2.05;;;18.70;70.60;;;;;;4402709;32;20007;-68
2022/08/14 02:52:17;;;;;;;2.70;2.30;;;18.70;70.70;;;;;;4404163;32;19991;-68
2022/08/14 02:54:44;;;;;;;4.12;2.22;;;18.80;69.20;;;;;;4398668;32;19996;-69
2022/08/14 02:57:12;;;;;;;2.60;2.20;;;18.90;69.00;;;;;;4399500;32;19985;-68
2022/08/14 02:59:40;;;;;;;4.43;2.30;;;18.80;71.20;;;;;;4401983;32;19961;-69
2022/08/14 03:02:08;;;;;;;2.62;2.28;;;18.70;72.40;;;;;;4409212;32;19992;-68
2022/08/14 03:04:36;;;;;;;2.83;2.45;;;18.60;72.50;;;;;;4412867;32;19970;-68
2022/08/14 03:07:04;;;;;;;4.70;2.28;;;18.50;72.80;;;;;;4407818;32;20024;-68
2022/08/14 03:09:32;;;;;;;2.45;2.25;;;18.30;72.90;;;;;;4401790;32;20014;-68
2022/08/14 03:11:58;;;;;;;2.65;2.45;;;18.20;73.80;;;;;;4411145;32;19963;-68
2022/08/14 03:14:26;;;;;;;3.37;2.40;;;18.10;74.20;;;;;;4400187;32;19972;-68
2022/08/14 03:16:53;;;;;;;4.30;2.75;;;18.00;74.10;;;;;;4401847;32;20047;-68
2022/08/14 03:19:19;;;;;;;4.70;2.70;;;17.90;75.30;;;;;;4410411;32;19956;-68
2022/08/14 03:21:46;;;;;;;3.50;2.50;;;17.70;75.50;;;;;;4405772;32;19989;-68
2022/08/14 03:24:14;;;;;;;3.87;2.40;;;17.70;76.30;;;;;;4417132;32;20014;-68
2022/08/14 03:26:43;;;;;;;3.53;2.80;;;17.70;76.40;;;;;;4414078;32;20030;-68
2022/08/14 03:29:12;;;;;;;3.00;2.40;;;17.70;76.50;;;;;;4404411;32;20117;-69
2022/08/14 03:31:40;;;;;;;3.33;2.37;;;17.60;77.10;;;;;;4406423;32;20123;-68
2022/08/14 03:34:09;;;;;;;5.50;2.83;;;17.50;77.50;;;;;;4404760;32;19975;-68
2022/08/14 03:36:37;;;;;;;6.60;2.60;;;17.40;79.20;;;;;;4402840;32;19997;-68
2022/08/14 03:39:06;;;;;;;4.40;2.50;;;17.30;79.50;;;;;;4408433;32;20002;-68
2022/08/14 03:41:35;;;;;;;3.95;2.80;;;17.20;78.20;;;;;;4411101;32;20168;-68
2022/08/14 03:44:04;;;;;;;4.25;2.45;;;17.20;77.60;;;;;;4414787;32;19963;-68
2022/08/14 03:46:33;;;;;;;3.12;2.40;;;17.20;77.20;;;;;;4397371;32;20128;-68
2022/08/14 03:49:03;;;;;;;3.80;2.37;;;17.40;76.40;;;;;;4402866;32;19961;-68
2022/08/14 03:51:30;;;;;;;2.90;2.60;;;17.30;77.10;;;;;;4403185;32;19978;-68
2022/08/14 03:53:58;;;;;;;2.67;2.40;;;17.30;78.20;;;;;;4408794;32;19979;-68
2022/08/14 03:56:28;;;;;;;5.10;2.75;;;17.30;78.70;;;;;;4411810;32;19961;-69
2022/08/14 03:58:58;;;;;;;3.22;2.45;;;17.20;77.20;;;;;;4407538;32;19958;-68
2022/08/14 04:01:26;;;;;;;3.60;2.90;;;17.10;78.80;;;;;;4407326;32;20026;-68
2022/08/14 04:03:56;;;;;;;3.05;2.58;;;17.20;79.40;;;;;;4403713;32;19991;-68
2022/08/14 04:06:24;;;;;;;3.78;2.65;;;17.20;79.60;;;;;;4401157;32;19975;-68
2022/08/14 04:08:52;;;;;;;4.47;2.90;;;17.00;80.20;;;;;;4400117;32;19977;-68
2022/08/14 04:11:19;;;;;;;4.62;3.45;;;17.10;78.70;;;;;;4405888;32;19959;-68
2022/08/14 04:13:47;;;;;;;7.87;3.37;;;17.10;80.20;;;;;;4403487;32;19960;-68
2022/08/14 04:16:19;;;;;;;8.15;3.53;;;16.40;86.10;;;;;;4405924;32;19961;-68
2022/08/14 04:18:48;;;;;;;4.03;2.83;;;16.50;85.30;;;;;;4396625;32;19964;-68
2022/08/14 04:21:16;;;;;;;4.68;2.70;;;16.80;80.10;;;;;;4402848;32;20000;-68
2022/08/14 04:23:44;;;;;;;3.30;2.40;;;17.00;79.70;;;;;;4404375;32;19994;-68
2022/08/14 04:26:12;;;;;;;4.10;2.40;;;17.20;78.30;;;;;;4403152;32;19962;-68
2022/08/14 04:28:41;;;;;;;3.30;2.33;;;17.30;78.70;;;;;;4399914;32;19962;-68
2022/08/14 04:31:07;;;;;;;3.22;2.35;;;17.30;78.90;;;;;;4399454;32;19979;-68
2022/08/14 04:33:36;;;;;;;2.70;2.35;;;17.20;81.60;;;;;;4403598;32;19992;-68
2022/08/14 04:36:03;;;;;;;2.58;2.12;;;16.90;81.70;;;;;;4401772;32;19992;-68
2022/08/14 04:44:13;;;;;;;7.18;2.85;;;17.00;81.90;;;;;;4407407;32;20121;-68
2022/08/14 04:48:11;;;;;;;3.87;2.50;;;17.00;81.10;;;;;;4408695;32;19985;-68
2022/08/14 04:49:27;;;;;;;3.67;2.42;;;17.10;81.80;;;;;;4396971;32;19960;-68
2022/08/14 04:51:54;;;;;;;2.97;2.40;;;17.20;81.70;;;;;;4404036;32;19978;-68
2022/08/14 04:54:21;;;;;;;3.58;2.75;;;17.30;82.10;;;;;;4403156;32;20059;-68
2022/08/14 04:56:48;;;;;;;4.20;2.58;;;17.20;82.20;;;;;;4403526;32;20002;-68
2022/08/14 04:59:14;;;;;;;4.87;2.78;;;17.10;83.00;;;;;;4404027;32;19962;-69
2022/08/14 05:01:43;;;;;;;4.90;2.60;;;17.10;84.70;;;;;;4410362;32;19986;-67
2022/08/14 05:04:11;;;;;;;8.02;2.40;;;17.00;81.10;;;;;;4418726;32;20107;-68
2022/08/14 05:06:39;;;;;;;4.47;2.42;;;17.10;80.80;;;;;;4406784;32;19977;-68
2022/08/14 05:09:06;;;;;;;3.45;2.40;;;17.20;81.20;;;;;;4402929;32;20139;-67
2022/08/14 05:11:34;;;;;;;3.72;2.78;;;17.20;82.30;;;;;;4406079;32;20015;-67
2022/08/14 05:14:01;;;;;;;3.10;2.40;;;17.20;83.00;;;;;;4396118;32;19988;-68
2022/08/14 05:16:30;;;;;;;3.20;2.60;;;17.20;82.70;;;;;;4410348;32;19989;-67
2022/08/14 05:18:57;;;;;;;3.95;2.67;;;17.20;81.40;;;;;;4409312;32;19989;-68
2022/08/14 05:21:27;;;;;;;3.33;2.60;;;17.30;81.90;;;;;;4412713;32;20003;-67
2022/08/14 05:23:55;;;;;;;3.35;2.45;;;17.40;81.80;;;;;;4414772;32;20044;-68
2022/08/14 05:26:22;;;;;;;4.40;2.33;;;17.40;81.90;;;;;;4409142;32;20130;-68
2022/08/14 05:28:49;;;;;;;3.42;2.55;;;17.30;82.40;;;;;;4404228;32;19998;-67
2022/08/14 05:31:17;;;;;;;3.55;2.60;;;17.40;80.60;;;;;;4402176;32;19991;-67
2022/08/14 05:33:45;;;;;;;3.85;2.60;;;17.50;82.60;;;;;;4415092;32;20103;-67
2022/08/14 05:36:13;;;;;;;6.07;2.80;;;17.60;80.20;;;;;;4403665;32;19977;-67
2022/08/14 05:38:43;;;;;;;3.53;2.78;;;17.90;88.30;;;;;;4412817;32;19960;-67
2022/08/14 05:41:13;;;;;;;3.72;2.37;;;18.00;86.10;;;;;;4410311;32;19964;-67
2022/08/14 05:43:41;;;;;;;4.32;2.65;;;18.00;79.40;;;;;;4403921;32;19968;-67
2022/08/14 05:46:12;;;;;;;4.18;2.20;;;18.30;84.50;;;;;;4414890;32;20147;-68
2022/08/14 05:48:39;;;;;;;3.72;2.65;;;18.60;76.50;;;;;;4403957;32;19961;-68
2022/08/14 05:51:06;;;;;;;4.07;2.50;;;18.90;80.70;;;;;;4402348;32;20006;-68
2022/08/14 05:53:32;;;;;;;4.65;2.70;;;19.30;85.60;;;;;;4407689;32;19991;-69
2022/08/14 05:55:59;;;;;;;2.78;2.50;;;19.90;87.20;;;;;;4396396;32;19994;-68
2022/08/14 05:58:27;;;;;;;2.90;2.35;;;20.50;80.50;;;;;;4420389;32;19991;-68
2022/08/14 06:00:55;;;;;;;3.67;2.55;;;21.10;79.60;;;;;;4420330;32;19958;-68
2022/08/14 06:03:22;;;;;;;3.08;2.22;;;21.90;74.80;;;;;;4409432;32;20104;-68
2022/08/14 06:05:51;;;;;;;3.85;2.20;;;22.40;75.40;;;;;;4401214;32;19961;-68
2022/08/14 06:08:20;;;;;;;4.32;2.62;;;22.60;66.90;;;;;;4411685;32;19991;-69
2022/08/14 06:10:47;;;;;;;4.25;2.42;;;24.00;69.20;;;;;;4419889;32;19991;-68
2022/08/14 06:13:15;;;;;;;3.58;2.53;;;24.60;67.30;;;;;;4410956;32;19991;-68
2022/08/14 06:15:44;;;;;;;2.45;2.05;;;25.30;61.00;;;;;;4411061;32;19979;-69
2022/08/14 06:18:10;;;;;;;6.30;2.65;;;25.20;62.20;;;;;;4404968;32;20105;-68
2022/08/14 06:20:38;;;;;;;5.35;2.50;;;25.90;61.10;;;;;;4410850;32;19989;-68
2022/08/14 06:23:05;;;;;;;4.00;2.35;;;26.50;61.40;;;;;;4401590;32;20005;-69
2022/08/14 06:25:32;;;;;;;3.95;2.50;;;26.80;62.70;;;;;;4404543;32;20055;-68
2022/08/14 06:27:59;;;;;;;2.67;2.15;;;26.60;61.00;;;;;;4393310;32;20027;-68
2022/08/14 06:30:28;;;;;;;3.67;2.20;;;26.40;61.90;;;;;;4406174;32;19959;-70
2022/08/14 06:32:56;;;;;;;3.20;2.62;;;25.60;62.80;;;;;;4401862;32;19973;-69
2022/08/14 06:35:23;;;;;;;4.05;2.70;;;25.90;62.30;;;;;;4412341;32;20046;-69
2022/08/14 06:37:52;;;;;;;4.82;2.33;;;25.40;59.70;;;;;;4407738;32;20005;-68
2022/08/14 06:40:21;;;;;;;4.40;2.60;;;26.30;60.30;;;;;;4410487;32;20050;-68
2022/08/14 06:42:49;;;;;;;3.42;2.95;;;26.80;62.20;;;;;;4396594;32;19994;-69
2022/08/14 06:45:16;;;;;;;3.62;2.40;;;27.80;57.40;;;;;;4406456;32;19968;-69
2022/08/14 06:47:44;;;;;;;3.40;2.40;;;28.70;55.20;;;;;;4409742;32;19975;-69
2022/08/14 06:50:14;;;;;;;3.40;2.12;;;29.90;55.80;;;;;;4404001;32;19958;-70
2022/08/14 06:52:42;;;;;;;3.30;2.40;;;29.30;51.50;;;;;;4399884;32;19964;-70
2022/08/14 06:55:11;;;;;;;3.83;2.45;;;30.40;54.30;;;;;;4411560;32;19958;-69
2022/08/14 06:57:40;;;;;;;3.22;2.33;;;29.90;52.60;;;;;;4420477;32;19956;-69
2022/08/14 07:00:10;;;;;;;3.58;2.40;;;29.60;52.90;;;;;;4410762;32;19963;-69
2022/08/14 07:08:13;;;;;;;4.15;2.70;;;28.40;57.70;;;;;;4405362;32;19965;-69
2022/08/14 07:10:42;;;;;;;4.05;2.50;;;28.50;56.90;;;;;;4408380;32;19968;-69
2022/08/14 07:13:09;;;;;;;3.72;2.65;;;29.30;56.50;;;;;;4416119;32;19961;-69
2022/08/14 07:15:35;;;;;;;3.90;2.92;;;29.00;55.90;;;;;;4407270;32;20139;-69
2022/08/14 07:18:03;;;;;;;4.37;3.12;;;28.40;57.80;;;;;;4402983;32;19989;-69
2022/08/14 07:20:31;;;;;;;3.45;3.00;;;28.00;57.10;;;;;;4399676;32;20046;-69
2022/08/14 07:22:59;;;;;;;3.58;2.80;;;28.50;56.50;;;;;;4410411;32;19961;-69
2022/08/14 07:25:27;;;;;;;3.42;2.55;;;28.00;58.40;;;;;;4407498;32;19993;-69
2022/08/14 07:27:54;;;;;;;3.75;3.15;;;29.00;55.40;;;;;;4412041;32;20049;-69
2022/08/14 07:30:21;;;;;;;2.87;2.58;;;29.20;52.80;;;;;;4399878;32;19997;-69
2022/08/14 07:32:48;;;;;;;4.62;2.92;;;29.40;53.20;;;;;;4411706;32;19961;-69
2022/08/14 07:35:14;;;;;;;3.67;2.55;;;29.20;54.90;;;;;;4405032;32;19993;-70
2022/08/14 07:37:42;;;;;;;3.28;2.62;;;28.90;55.50;;;;;;4404877;32;19959;-70
2022/08/14 07:40:11;;;;;;;4.20;2.80;;;29.60;55.70;;;;;;4398621;32;19962;-69
2022/08/14 07:42:38;;;;;;;3.42;2.90;;;30.30;54.50;;;;;;4398564;32;19959;-69
2022/08/14 07:45:05;;;;;;;4.90;2.70;;;30.30;54.20;;;;;;4402675;32;19995;-70
2022/08/14 07:47:32;;;;;;;3.67;2.62;;;30.30;53.70;;;;;;4402918;32;19956;-69
2022/08/14 07:50:02;;;;;;;4.50;2.60;;;30.70;53.90;;;;;;4397995;32;19964;-70
2022/08/14 07:52:29;;;;;;;3.45;2.47;;;31.30;51.60;;;;;;4412142;32;19966;-69
2022/08/14 07:54:57;;;;;;;3.47;2.55;;;31.30;51.70;;;;;;4406441;32;19970;-69
2022/08/14 07:57:26;;;;;;;4.57;2.67;;;32.00;51.90;;;;;;4407174;32;19963;-71
2022/08/14 07:59:52;;;;;;;4.28;3.08;;;31.60;51.50;;;;;;4413485;32;19974;-69
2022/08/14 08:02:20;;;;;;;3.60;2.80;;;31.00;52.60;;;;;;4410141;32;19996;-69
2022/08/14 08:04:49;;;;;;;3.53;2.70;;;31.60;52.10;;;;;;4407194;32;19991;-69
2022/08/14 08:07:16;;;;;;;2.90;2.67;;;32.00;51.40;;;;;;4409312;32;19993;-69
2022/08/14 08:09:46;;;;;;;3.97;2.70;;;32.20;51.60;;;;;;4396463;32;20031;-70
2022/08/14 08:12:16;;;;;;;4.40;2.83;;;31.60;51.40;;;;;;4405594;32;19989;-70
2022/08/14 08:14:44;;;;;;;4.15;3.03;;;32.00;50.90;;;;;;4406722;32;20119;-70
2022/08/14 08:17:11;;;;;;;5.47;2.70;;;32.40;51.40;;;;;;4404674;32;20000;-70
2022/08/14 08:19:38;;;;;;;5.22;2.62;;;32.80;50.40;;;;;;4401519;32;20120;-70
2022/08/14 08:22:05;;;;;;;3.05;2.75;;;33.00;49.60;;;;;;4411074;32;19968;-70
2022/08/14 08:24:32;;;;;;;5.60;2.90;;;32.80;50.30;;;;;;4412650;32;20000;-70
2022/08/14 08:27:01;;;;;;;4.43;3.08;;;32.80;51.60;;;;;;4411784;32;19969;-70
2022/08/14 08:29:29;;;;;;;4.80;2.65;;;32.80;51.60;;;;;;4412082;32;19974;-70
2022/08/14 08:31:58;;;;;;;5.50;2.97;;;33.20;50.40;;;;;;4403802;32;19963;-70
2022/08/14 08:34:24;;;;;;;3.47;2.78;;;33.40;50.80;;;;;;4406984;32;19988;-70
2022/08/14 08:36:51;;;;;;;6.25;3.00;;;32.60;51.00;;;;;;4404214;32;20112;-70
2022/08/14 08:39:18;;;;;;;3.37;2.50;;;33.20;50.60;;;;;;4403220;32;20105;-70
2022/08/14 08:41:47;;;;;;;5.07;2.60;;;33.30;48.70;;;;;;4415705;32;19956;-69
2022/08/14 08:44:14;;;;;;;3.55;2.08;;;33.00;46.90;;;;;;4406024;32;19980;-70
2022/08/14 08:46:44;;;;;;;3.40;2.90;;;33.30;45.30;;;;;;4402393;32;19966;-69
2022/08/14 08:49:10;;;;;;;4.18;2.67;;;34.40;47.50;;;;;;4412269;32;19990;-69
2022/08/14 08:51:38;;;;;;;4.87;2.92;;;34.40;48.80;;;;;;4408676;32;20044;-70
2022/08/14 08:54:07;;;;;;;3.90;3.10;;;35.00;49.10;;;;;;4413628;32;19999;-68
2022/08/14 08:56:39;;;;;;;4.07;3.22;;;33.90;50.40;;;;;;4416192;32;20005;-69
2022/08/14 08:59:20;;;;;;;4.45;3.10;;;34.70;48.50;;;;;;4407065;32;19972;-69
2022/08/14 09:01:51;;;;;;;3.95;2.80;;;34.90;48.20;;;;;;4416222;32;20128;-69
2022/08/14 09:04:18;;;;;;;5.37;3.10;;;35.40;48.30;;;;;;4407449;32;19975;-69
2022/08/14 09:06:45;;;;;;;2.95;2.55;;;36.20;47.90;;;;;;4408532;32;19994;-69
2022/08/14 09:09:21;;;;;;;3.47;2.85;;;36.30;45.50;;;;;;4413047;32;20001;-69
2022/08/14 09:11:48;;;;;;;3.72;2.90;;;37.10;43.80;;;;;;4411173;32;19967;-69
2022/08/14 09:14:15;;;;;;;5.05;2.97;;;37.20;44.30;;;;;;4415410;32;20003;-69
2022/08/14 09:16:42;;;;;;;4.78;2.70;;;37.40;45.50;;;;;;4399933;32;19956;-68
2022/08/14 09:19:10;;;;;;;3.78;2.85;;;37.70;45.60;;;;;;4411543;32;19994;-71
2022/08/14 09:21:39;;;;;;;4.25;2.75;;;38.20;44.50;;;;;;4411720;32;19959;-70
2022/08/14 09:24:07;;;;;;;6.55;2.70;;;37.00;46.30;;;;;;4398709;32;19955;-70
2022/08/14 09:26:34;;;;;;;2.97;2.62;;;38.20;45.90;;;;;;4403290;32;19959;-70
2022/08/14 09:29:01;;;;;;;5.43;2.80;;;38.20;45.00;;;;;;4410872;32;20008;-69
2022/08/14 09:31:29;;;;;;;5.68;2.62;;;39.10;43.70;;;;;;4404722;32;19996;-70
2022/08/14 09:34:05;;;;;;;4.60;2.65;;;39.50;42.20;;;;;;4404861;32;19959;-69
2022/08/14 09:36:52;;;;;;;3.58;2.60;;;39.90;41.30;;;;;;4408244;32;19995;-69
2022/08/14 09:39:32;;;;;;;3.55;2.60;;;39.80;42.20;;;;;;4400206;32;20026;-70
2022/08/14 09:42:16;;;;;;;2.65;2.45;;;40.40;41.00;;;;;;4403125;32;20007;-70
2022/08/14 09:44:53;;;;;;;4.12;2.70;;;41.50;40.00;;;;;;4406776;32;19966;-70
2022/08/14 09:47:20;;;;;;;5.20;2.70;;;41.90;39.20;;;;;;4400058;32;19963;-69
2022/08/14 09:49:48;;;;;;;2.87;2.37;;;42.40;39.30;;;;;;4402908;32;20120;-70
2022/08/14 09:52:17;;;;;;;4.62;2.58;;;41.90;38.10;;;;;;4417713;32;19976;-71
2022/08/14 09:54:45;;;;;;;2.83;2.40;;;41.90;39.50;;;;;;4404501;32;20001;-69
2022/08/14 09:57:25;;;;;;;3.42;2.35;;;42.30;39.40;;;;;;4410070;32;19999;-70
2022/08/14 09:59:52;;;;;;;5.37;2.30;;;42.30;37.40;;;;;;4402159;32;20048;-70
2022/08/14 10:02:21;;;;;;;3.03;2.60;;;41.80;36.50;;;;;;4405776;32;19991;-69
2022/08/14 10:05:02;;;;;;;4.10;2.20;;;42.10;37.60;;;;;;4407309;32;20022;-69
2022/08/14 10:07:32;;;;;;;2.80;2.22;;;42.20;38.20;;;;;;4418178;32;19991;-69
2022/08/14 10:10:00;;;;;;;3.28;2.22;;;42.00;37.00;;;;;;4404929;32;20089;-70
2022/08/14 10:12:43;;;;;;;2.42;2.10;;;43.20;37.30;;;;;;4401315;32;20029;-69
2022/08/14 10:15:18;;;;;;;3.92;2.37;;;43.40;37.00;;;;;;4404451;32;20040;-70
2022/08/14 10:17:45;;;;;;;3.45;2.15;;;43.80;36.00;;;;;;4413913;32;20116;-70
2022/08/14 10:20:13;;;;;;;2.80;2.03;;;43.60;37.70;;;;;;4400399;32;20038;-70
2022/08/14 10:22:41;;;;;;;2.30;2.10;;;44.80;37.20;;;;;;4404597;32;19959;-70
2022/08/14 10:25:13;;;;;;;2.72;1.90;;;46.80;35.00;;;;;;4405019;32;19989;-69
2022/08/14 10:27:40;;;;;;;2.28;2.08;;;45.40;37.00;;;;;;4405563;32;19972;-69
2022/08/14 10:30:14;;;;;;;3.12;2.28;;;45.90;34.80;;;;;;4405608;32;19991;-69
2022/08/14 10:32:44;;;;;;;3.85;2.00;;;45.30;33.60;;;;;;4405983;32;20109;-69
2022/08/14 10:35:13;;;;;;;2.60;2.00;;;44.10;35.00;;;;;;4402786;32;19964;-69
2022/08/14 10:37:45;;;;;;;6.25;2.30;;;44.40;34.00;;;;;;4412760;32;19991;-69
2022/08/14 10:40:14;;;;;;;3.12;2.10;;;44.60;33.60;;;;;;4420432;32;19973;-69
2022/08/14 10:42:42;;;;;;;3.27;2.10;;;45.50;35.60;;;;;;4402370;32;20000;-70
2022/08/14 10:45:20;;;;;;;2.33;1.95;;;45.50;33.00;;;;;;4407960;32;19957;-69
2022/08/14 10:47:47;;;;;;;3.20;1.80;;;46.40;33.90;;;;;;4412532;32;19975;-69
2022/08/14 10:50:15;;;;;;;2.25;1.80;;;46.10;33.50;;;;;;4409596;32;19966;-70
2022/08/14 10:52:45;;;;;;;2.00;1.90;;;46.60;32.70;;;;;;4411357;32;19956;-70
2022/08/14 10:55:14;;;;;;;2.37;1.80;;;46.70;33.30;;;;;;4408652;32;20134;-69
2022/08/14 10:57:51;;;;;;;3.35;1.90;;;46.80;34.50;;;;;;4405469;32;19966;-69
2022/08/14 11:00:20;;;;;;;2.45;2.25;;;45.50;34.70;;;;;;4401851;32;19956;-69
2022/08/14 11:02:57;;;;;;;2.75;2.05;;;44.40;35.30;;;;;;4405658;32;19957;-69
2022/08/14 11:05:26;;;;;;;2.37;1.85;;;45.40;35.80;;;;;;4402867;32;19984;-70
2022/08/14 11:07:59;;;;;;;3.00;1.85;;;46.10;34.60;;;;;;4404581;32;19961;-69
2022/08/14 11:10:38;;;;;;;2.22;2.03;;;46.10;34.30;;;;;;4411728;32;19975;-70
2022/08/14 11:13:05;;;;;;;2.47;2.15;;;47.30;33.10;;;;;;4400642;32;19993;-70
2022/08/14 11:15:33;;;;;;;2.20;2.10;;;46.40;33.20;;;;;;4405411;32;19993;-69
2022/08/14 11:17:59;;;;;;;3.78;1.92;;;45.00;31.00;;;;;;4410801;32;19979;-69
2022/08/14 11:20:29;;;;;;;2.75;1.90;;;44.60;32.50;;;;;;4416243;32;20001;-69
2022/08/14 11:22:59;;;;;;;2.30;2.10;;;43.50;35.80;;;;;;4413562;32;20029;-69
2022/08/14 11:25:30;;;;;;;3.00;1.85;;;42.90;34.30;;;;;;4402044;32;19964;-69
2022/08/14 11:27:58;;;;;;;2.28;2.00;;;44.20;34.70;;;;;;4396372;32;19965;-69
2022/08/14 11:30:28;;;;;;;2.92;2.45;;;44.80;33.80;;;;;;4400312;32;19972;-69
2022/08/14 11:32:56;;;;;;;2.35;1.90;;;45.30;34.00;;;;;;4407173;32;19956;-69
2022/08/14 11:35:25;;;;;;;2.87;2.00;;;43.30;35.00;;;;;;4409402;32;19961;-69
2022/08/14 11:37:54;;;;;;;2.65;2.15;;;44.30;33.00;;;;;;4399200;32;19979;-69
2022/08/14 11:40:23;;;;;;;2.58;2.33;;;45.00;34.30;;;;;;4397281;32;19962;-70
2022/08/14 11:42:52;;;;;;;3.25;2.10;;;45.50;34.00;;;;;;4402315;32;19959;-70
2022/08/14 11:45:19;;;;;;;4.75;2.40;;;44.50;35.10;;;;;;4405301;32;19961;-70
2022/08/14 11:47:46;;;;;;;2.50;2.10;;;43.90;34.40;;;;;;4401626;32;19967;-70
2022/08/14 11:50:16;;;;;;;4.70;2.12;;;43.30;35.90;;;;;;4396793;32;19961;-70
2022/08/14 11:52:43;;;;;;;2.17;1.98;;;43.80;36.20;;;;;;4403814;32;19977;-69
2022/08/14 11:55:12;;;;;;;2.30;2.10;;;44.10;35.70;;;;;;4406273;32;20063;-70
2022/08/14 11:57:42;;;;;;;3.20;1.90;;;44.80;35.60;;;;;;4395660;32;19964;-71
2022/08/14 12:00:11;;;;;;;3.22;2.45;;;44.50;35.80;;;;;;4399151;32;19959;-70
2022/08/14 12:02:48;;;;;;;2.57;2.37;;;42.80;34.70;;;;;;4409755;32;20045;-71
2022/08/14 12:05:15;;;;;;;2.25;2.00;;;41.60;34.40;;;;;;4404698;32;20076;-71
2022/08/14 12:07:48;;;;;;;3.65;1.90;;;37.10;39.80;;;;;;4407057;32;19994;-69
2022/08/14 12:10:17;;;;;;;2.42;2.22;;;38.40;40.80;;;;;;4406818;32;19977;-70
2022/08/14 12:12:46;;;;;;;2.90;2.50;;;39.50;38.70;;;;;;4407789;32;20102;-70
2022/08/14 12:15:13;;;;;;;2.62;2.30;;;39.50;38.90;;;;;;4403887;32;19971;-70
2022/08/14 12:17:47;;;;;;;4.68;2.10;;;39.10;39.20;;;;;;4411692;32;19993;-69
2022/08/14 12:20:15;;;;;;;2.30;2.10;;;39.10;39.90;;;;;;4413349;32;19992;-70
2022/08/14 12:22:43;;;;;;;3.08;2.30;;;39.00;37.10;;;;;;4407547;32;19963;-69
2022/08/14 12:25:12;;;;;;;3.28;2.30;;;38.10;37.70;;;;;;4406852;32;19989;-69
2022/08/14 12:27:42;;;;;;;3.42;2.20;;;37.70;39.80;;;;;;4406730;32;19963;-70
2022/08/14 12:30:13;;;;;;;2.58;1.92;;;37.40;38.30;;;;;;4419694;32;19956;-70
2022/08/14 12:32:42;;;;;;;2.55;2.25;;;37.00;39.20;;;;;;4414222;32;20000;-69
2022/08/14 12:35:09;;;;;;;2.80;2.33;;;36.00;37.20;;;;;;4416584;32;20031;-70
2022/08/14 12:37:37;;;;;;;3.30;2.20;;;36.00;40.10;;;;;;4407889;32;19995;-69
2022/08/14 12:40:12;;;;;;;2.33;2.05;;;36.40;38.70;;;;;;4412090;32;20103;-68
2022/08/14 12:42:39;;;;;;;2.65;2.28;;;36.40;38.40;;;;;;4408917;32;20140;-69
2022/08/14 12:45:10;;;;;;;2.92;2.42;;;36.20;39.10;;;;;;4403826;32;20118;-68
2022/08/14 12:47:39;;;;;;;2.67;2.12;;;36.30;37.90;;;;;;4404816;32;19994;-69
2022/08/14 12:50:08;;;;;;;2.60;2.05;;;36.30;39.30;;;;;;4413657;32;19981;-69
2022/08/14 12:52:39;;;;;;;10.15;2.60;;;36.70;39.80;;;;;;4416778;32;19971;-69
2022/08/14 12:55:06;;;;;;;;;;;36.00;37.60;;;;;;4412869;32;20178;-69
2022/08/14 12:57:36;;;;;;;1.98;1.77;;;35.20;38.00;;;;;;4410499;32;19979;-69
2022/08/14 13:00:09;;;;;;;2.47;2.10;;;35.70;38.20;;;;;;4405241;32;19960;-69
2022/08/14 13:02:39;;;;;;;2.20;2.00;;;34.60;38.90;;;;;;4411919;32;20012;-69
2022/08/14 13:05:08;;;;;;;2.85;1.90;;;35.00;39.40;;;;;;4407779;32;20017;-69
2022/08/14 13:07:36;;;;;;;2.15;1.87;;;35.50;38.90;;;;;;4407793;32;20001;-69
2022/08/14 13:10:04;;;;;;;3.30;2.03;;;35.50;39.70;;;;;;4408031;32;19963;-69
2022/08/14 13:12:33;;;;;;;2.58;2.00;;;35.70;39.00;;;;;;4407237;32;19973;-70